createdAt,value
2023-02-07T00:00:59.078Z,-4.31
2023-02-07T00:01:59.105Z,-4.28
2023-02-07T00:02:59.083Z,-4.41
2023-02-07T00:03:59.073Z,-4.38
2023-02-07T00:04:59.027Z,-4.41
2023-02-07T00:05:59.020Z,-4.38
2023-02-07T00:06:59.007Z,-4.36
2023-02-07T00:07:59.000Z,-4.39
2023-02-07T00:08:58.984Z,-4.36
2023-02-07T00:09:58.978Z,-4.39
2023-02-07T00:10:58.964Z,-4.35
2023-02-07T00:11:58.959Z,-4.45
2023-02-07T00:12:58.949Z,-4.39
2023-02-07T00:13:58.945Z,-4.42
2023-02-07T00:14:58.954Z,-4.45
2023-02-07T00:15:58.916Z,-4.39
2023-02-07T00:16:58.924Z,-4.39
2023-02-07T00:17:58.900Z,-4.42
2023-02-07T00:19:00.330Z,-4.18
2023-02-07T00:19:58.875Z,-4.27
2023-02-07T00:20:58.860Z,-4.21
2023-02-07T00:21:58.843Z,-4.23
2023-02-07T00:22:58.841Z,-4.31
2023-02-07T00:23:58.822Z,-4.35
2023-02-07T00:24:58.821Z,-4.41
2023-02-07T00:25:58.805Z,-4.46
2023-02-07T00:26:58.797Z,-4.34
2023-02-07T00:27:58.873Z,-4.39
2023-02-07T00:28:58.772Z,-4.35
2023-02-07T00:29:58.762Z,-4.44
2023-02-07T00:30:58.843Z,-4.35
2023-02-07T00:31:58.740Z,-4.45
2023-02-07T00:32:58.740Z,-4.54
2023-02-07T00:33:58.732Z,-4.46
2023-02-07T00:34:58.706Z,-4.42
2023-02-07T00:35:58.702Z,-4.53
2023-02-07T00:36:58.701Z,-4.56
2023-02-07T00:37:58.676Z,-4.46
2023-02-07T00:38:58.686Z,-4.54
2023-02-07T00:39:58.666Z,-4.48
2023-02-07T00:40:58.653Z,-4.49
2023-02-07T00:41:58.635Z,-4.49
2023-02-07T00:42:58.638Z,-4.54
2023-02-07T00:43:58.619Z,-4.48
2023-02-07T00:44:58.622Z,-4.44
2023-02-07T00:45:58.640Z,-4.41
2023-02-07T00:46:58.617Z,-4.42
2023-02-07T00:48:06.109Z,-4.45
2023-02-07T00:48:58.570Z,-4.36
2023-02-07T00:49:58.563Z,-4.42
2023-02-07T00:50:58.552Z,-4.39
2023-02-07T00:51:58.551Z,-4.38
2023-02-07T00:52:58.527Z,-4.53
2023-02-07T00:53:58.524Z,-4.56
2023-02-07T00:54:58.525Z,-4.57
2023-02-07T00:55:58.503Z,-4.73
2023-02-07T00:56:58.495Z,-4.70
2023-02-07T00:57:58.472Z,-4.73
2023-02-07T00:58:58.463Z,-4.70
2023-02-07T00:59:58.467Z,-4.66
2023-02-07T01:00:58.484Z,-4.63
2023-02-07T01:01:58.447Z,-4.70
2023-02-07T01:02:58.450Z,-4.62
2023-02-07T01:03:58.416Z,-4.67
2023-02-07T01:04:58.439Z,-4.66
2023-02-07T01:05:58.397Z,-4.63
2023-02-07T01:06:58.389Z,-4.64
2023-02-07T01:07:58.378Z,-4.63
2023-02-07T01:08:58.374Z,-4.73
2023-02-07T01:09:58.373Z,-4.74
2023-02-07T01:10:58.375Z,-4.74
2023-02-07T01:11:58.363Z,-4.81
2023-02-07T01:12:58.338Z,-4.74
2023-02-07T01:13:58.317Z,-4.77
2023-02-07T01:14:58.323Z,-4.81
2023-02-07T01:15:58.333Z,-4.67
2023-02-07T01:16:58.289Z,-4.74
2023-02-07T01:17:58.272Z,-4.71
2023-02-07T01:18:58.292Z,-4.71
2023-02-07T01:19:58.257Z,-4.70
2023-02-07T01:20:58.252Z,-4.74
2023-02-07T01:21:58.252Z,-4.74
2023-02-07T01:22:58.226Z,-4.75
2023-02-07T01:23:58.215Z,-4.77
2023-02-07T01:24:58.216Z,-4.77
2023-02-07T01:25:58.198Z,-4.80
2023-02-07T01:26:58.192Z,-4.74
2023-02-07T01:27:58.190Z,-4.67
2023-02-07T01:28:58.171Z,-4.74
2023-02-07T01:29:58.166Z,-4.70
2023-02-07T01:30:58.271Z,-4.81
2023-02-07T01:31:58.265Z,-4.74
2023-02-07T01:32:58.140Z,-4.80
2023-02-07T01:33:58.139Z,-4.85
2023-02-07T01:34:58.128Z,-4.92
2023-02-07T01:35:58.098Z,-4.87
2023-02-07T01:36:58.099Z,-4.87
2023-02-07T01:37:58.068Z,-4.80
2023-02-07T01:38:58.080Z,-4.78
2023-02-07T01:39:58.059Z,-4.84
2023-02-07T01:40:58.053Z,-4.87
2023-02-07T01:41:58.035Z,-4.89
2023-02-07T01:42:58.021Z,-4.95
2023-02-07T01:43:58.008Z,-4.91
2023-02-07T01:44:58.003Z,-4.82
2023-02-07T01:45:58.096Z,-4.84
2023-02-07T01:46:57.988Z,-4.89
2023-02-07T01:47:57.967Z,-4.84
2023-02-07T01:48:57.961Z,-4.89
2023-02-07T01:49:57.947Z,-4.91
2023-02-07T01:50:58.466Z,-4.87
2023-02-07T01:51:57.950Z,-4.87
2023-02-07T01:52:57.912Z,-4.84
2023-02-07T01:53:57.905Z,-4.82
2023-02-07T01:54:57.896Z,-4.75
2023-02-07T01:55:57.882Z,-4.75
2023-02-07T01:56:57.895Z,-4.77
2023-02-07T01:57:57.874Z,-4.87
2023-02-07T01:58:57.871Z,-4.75
2023-02-07T01:59:57.852Z,-4.74
2023-02-07T02:00:57.833Z,-4.75
2023-02-07T02:01:57.838Z,-4.77
2023-02-07T02:02:57.926Z,-4.80
2023-02-07T02:03:57.815Z,-4.80
2023-02-07T02:04:57.808Z,-4.78
2023-02-07T02:05:57.786Z,-4.78
2023-02-07T02:06:57.811Z,-4.78
2023-02-07T02:07:57.778Z,-4.74
2023-02-07T02:08:57.761Z,-4.77
2023-02-07T02:09:57.781Z,-4.80
2023-02-07T02:10:57.739Z,-4.64
2023-02-07T02:11:57.740Z,-4.70
2023-02-07T02:12:57.715Z,-4.77
2023-02-07T02:13:57.712Z,-4.71
2023-02-07T02:14:57.704Z,-4.75
2023-02-07T02:15:57.733Z,-4.62
2023-02-07T02:16:57.685Z,-4.73
2023-02-07T02:17:57.677Z,-4.70
2023-02-07T02:18:57.656Z,-4.70
2023-02-07T02:19:57.657Z,-4.64
2023-02-07T02:20:57.653Z,-4.59
2023-02-07T02:21:57.632Z,-4.52
2023-02-07T02:22:57.641Z,-4.44
2023-02-07T02:23:57.609Z,-4.42
2023-02-07T02:25:05.142Z,-4.39
2023-02-07T02:25:57.617Z,-4.36
2023-02-07T02:26:57.582Z,-4.35
2023-02-07T02:27:57.596Z,-4.35
2023-02-07T02:28:57.555Z,-4.35
2023-02-07T02:29:57.553Z,-4.27
2023-02-07T02:30:57.618Z,-4.27
2023-02-07T02:31:57.544Z,-4.21
2023-02-07T02:32:57.534Z,-4.25
2023-02-07T02:33:57.514Z,-4.30
2023-02-07T02:34:57.495Z,-4.31
2023-02-07T02:35:57.497Z,-4.25
2023-02-07T02:36:57.502Z,-4.27
2023-02-07T02:37:57.470Z,-4.36
2023-02-07T02:38:57.478Z,-4.38
2023-02-07T02:39:57.454Z,-4.31
2023-02-07T02:40:57.463Z,-4.36
2023-02-07T02:41:57.425Z,-4.38
2023-02-07T02:42:57.451Z,-4.36
2023-02-07T02:43:57.410Z,-4.44
2023-02-07T02:44:57.396Z,-4.45
2023-02-07T02:45:57.394Z,-4.42
2023-02-07T02:46:57.375Z,-4.38
2023-02-07T02:47:57.386Z,-4.42
2023-02-07T02:48:57.354Z,-4.38
2023-02-07T02:49:57.349Z,-4.39
2023-02-07T02:50:57.335Z,-4.36
2023-02-07T02:51:57.331Z,-4.45
2023-02-07T02:52:57.331Z,-4.36
2023-02-07T02:53:57.303Z,-4.39
2023-02-07T02:54:57.315Z,-4.30
2023-02-07T02:55:57.285Z,-4.42
2023-02-07T02:56:57.272Z,-4.44
2023-02-07T02:57:57.263Z,-4.35
2023-02-07T02:58:57.255Z,-4.36
2023-02-07T02:59:57.247Z,-4.28
2023-02-07T03:00:57.238Z,-4.25
2023-02-07T03:01:57.284Z,-4.36
2023-02-07T03:02:57.215Z,-4.28
2023-02-07T03:03:57.209Z,-4.42
2023-02-07T03:04:57.216Z,-4.31
2023-02-07T03:05:57.180Z,-4.28
2023-02-07T03:06:57.169Z,-4.41
2023-02-07T03:07:57.177Z,-4.34
2023-02-07T03:08:57.157Z,-4.36
2023-02-07T03:09:57.145Z,-4.48
2023-02-07T03:10:57.156Z,-4.45
2023-02-07T03:11:57.127Z,-4.46
2023-02-07T03:12:57.124Z,-4.48
2023-02-07T03:13:57.097Z,-4.35
2023-02-07T03:14:57.090Z,-4.46
2023-02-07T03:15:57.126Z,-4.45
2023-02-07T03:16:57.065Z,-4.53
2023-02-07T03:17:57.062Z,-4.62
2023-02-07T03:18:57.071Z,-4.60
2023-02-07T03:19:57.035Z,-4.52
2023-02-07T03:20:57.049Z,-4.54
2023-02-07T03:21:57.017Z,-4.57
2023-02-07T03:22:56.996Z,-4.54
2023-02-07T03:23:57.001Z,-4.67
2023-02-07T03:24:56.995Z,-4.66
2023-02-07T03:25:56.982Z,-4.64
2023-02-07T03:26:56.986Z,-4.63
2023-02-07T03:27:56.988Z,-4.70
2023-02-07T03:28:56.932Z,-4.67
2023-02-07T03:29:56.929Z,-4.73
2023-02-07T03:30:56.993Z,-4.77
2023-02-07T03:31:56.921Z,-4.73
2023-02-07T03:32:56.897Z,-4.74
2023-02-07T03:33:56.878Z,-4.73
2023-02-07T03:34:56.869Z,-4.81
2023-02-07T03:35:56.864Z,-4.77
2023-02-07T03:36:56.860Z,-4.80
2023-02-07T03:37:56.846Z,-4.82
2023-02-07T03:38:56.840Z,-4.78
2023-02-07T03:39:56.818Z,-4.77
2023-02-07T03:40:56.814Z,-4.81
2023-02-07T03:41:56.830Z,-4.73
2023-02-07T03:42:56.814Z,-4.70
2023-02-07T03:43:56.790Z,-4.71
2023-02-07T03:44:56.764Z,-4.67
2023-02-07T03:45:56.768Z,-4.71
2023-02-07T03:46:56.743Z,-4.70
2023-02-07T03:47:56.744Z,-4.77
2023-02-07T03:48:56.739Z,-4.80
2023-02-07T03:49:56.718Z,-4.80
2023-02-07T03:50:56.713Z,-4.85
2023-02-07T03:51:56.696Z,-4.99
2023-02-07T03:52:56.692Z,-4.95
2023-02-07T03:53:56.696Z,-4.84
2023-02-07T03:54:56.670Z,-4.92
2023-02-07T03:55:56.690Z,-5.03
2023-02-07T03:56:56.648Z,-4.95
2023-02-07T03:57:56.649Z,-4.98
2023-02-07T03:58:56.649Z,-4.93
2023-02-07T03:59:56.630Z,-4.99
2023-02-07T04:00:56.659Z,-4.91
2023-02-07T04:02:04.163Z,-5.05
2023-02-07T04:02:56.589Z,-5.13
2023-02-07T04:03:56.574Z,-5.14
2023-02-07T04:04:56.574Z,-5.10
2023-02-07T04:05:56.567Z,-4.98
2023-02-07T04:06:56.550Z,-5.05
2023-02-07T04:07:56.542Z,-4.98
2023-02-07T04:08:56.530Z,-4.93
2023-02-07T04:09:56.515Z,-5.03
2023-02-07T04:10:56.507Z,-4.91
2023-02-07T04:11:56.494Z,-4.91
2023-02-07T04:12:56.485Z,-4.87
2023-02-07T04:13:56.471Z,-4.96
2023-02-07T04:14:56.481Z,-4.99
2023-02-07T04:15:56.636Z,-5.02
2023-02-07T04:16:56.442Z,-4.99
2023-02-07T04:17:56.428Z,-4.98
2023-02-07T04:18:56.424Z,-5.01
2023-02-07T04:19:56.410Z,-5.05
2023-02-07T04:20:56.409Z,-4.96
2023-02-07T04:21:56.402Z,-5.01
2023-02-07T04:22:56.372Z,-4.96
2023-02-07T04:23:56.361Z,-4.95
2023-02-07T04:24:56.360Z,-4.99
2023-02-07T04:25:56.353Z,-4.87
2023-02-07T04:26:56.332Z,-5.02
2023-02-07T04:27:56.438Z,-5.03
2023-02-07T04:28:56.309Z,-4.99
2023-02-07T04:29:56.322Z,-5.01
2023-02-07T04:30:56.464Z,-4.89
2023-02-07T04:31:58.608Z,-4.89
2023-02-07T04:32:56.285Z,-4.96
2023-02-07T04:33:56.268Z,-5.05
2023-02-07T04:34:56.255Z,-4.95
2023-02-07T04:35:56.251Z,-5.01
2023-02-07T04:36:56.221Z,-5.02
2023-02-07T04:37:56.251Z,-5.01
2023-02-07T04:38:56.206Z,-5.02
2023-02-07T04:39:56.198Z,-5.10
2023-02-07T04:40:56.189Z,-5.10
2023-02-07T04:41:56.188Z,-5.11
2023-02-07T04:42:56.167Z,-5.11
2023-02-07T04:43:56.169Z,-5.07
2023-02-07T04:44:56.150Z,-5.01
2023-02-07T04:45:56.175Z,-5.20
2023-02-07T04:46:56.147Z,-5.11
2023-02-07T04:47:56.117Z,-5.20
2023-02-07T04:48:56.110Z,-5.24
2023-02-07T04:49:56.095Z,-5.21
2023-02-07T04:50:56.075Z,-5.24
2023-02-07T04:51:56.075Z,-5.29
2023-02-07T04:52:56.098Z,-5.32
2023-02-07T04:53:56.054Z,-5.35
2023-02-07T04:54:56.054Z,-5.33
2023-02-07T04:55:56.040Z,-5.39
2023-02-07T04:56:56.028Z,-5.29
2023-02-07T04:57:56.016Z,-5.33
2023-02-07T04:58:56.029Z,-5.36
2023-02-07T04:59:55.991Z,-5.35
2023-02-07T05:00:56.070Z,-5.38
2023-02-07T05:01:55.969Z,-5.46
2023-02-07T05:02:55.985Z,-5.38
2023-02-07T05:03:55.951Z,-5.57
2023-02-07T05:04:55.955Z,-5.54
2023-02-07T05:05:55.942Z,-5.57
2023-02-07T05:06:55.924Z,-5.54
2023-02-07T05:07:55.921Z,-5.61
2023-02-07T05:08:55.909Z,-5.72
2023-02-07T05:09:55.913Z,-5.67
2023-02-07T05:10:55.881Z,-5.63
2023-02-07T05:11:55.877Z,-5.65
2023-02-07T05:12:55.878Z,-5.74
2023-02-07T05:13:55.875Z,-5.68
2023-02-07T05:14:57.419Z,-5.68
2023-02-07T05:15:55.829Z,-5.77
2023-02-07T05:16:55.846Z,-5.74
2023-02-07T05:17:55.821Z,-5.78
2023-02-07T05:18:55.839Z,-5.77
2023-02-07T05:19:55.808Z,-5.78
2023-02-07T05:20:55.793Z,-5.79
2023-02-07T05:21:55.773Z,-5.88
2023-02-07T05:22:55.775Z,-5.96
2023-02-07T05:23:55.759Z,-5.92
2023-02-07T05:24:55.762Z,-5.98
2023-02-07T05:25:55.728Z,-5.81
2023-02-07T05:26:55.735Z,-5.93
2023-02-07T05:27:55.762Z,-5.93
2023-02-07T05:28:55.704Z,-5.88
2023-02-07T05:29:55.708Z,-5.88
2023-02-07T05:30:55.826Z,-5.92
2023-02-07T05:31:55.677Z,-5.90
2023-02-07T05:32:55.666Z,-5.89
2023-02-07T05:33:55.660Z,-5.95
2023-02-07T05:34:55.705Z,-5.86
2023-02-07T05:35:55.626Z,-5.93
2023-02-07T05:36:55.633Z,-5.88
2023-02-07T05:37:55.622Z,-5.86
2023-02-07T05:38:55.602Z,-5.90
2023-02-07T05:40:04.203Z,-5.89
2023-02-07T05:40:55.581Z,-5.90
2023-02-07T05:41:55.579Z,-5.95
2023-02-07T05:42:55.570Z,-5.96
2023-02-07T05:43:55.559Z,-6.00
2023-02-07T05:44:55.546Z,-5.96
2023-02-07T05:45:55.632Z,-5.92
2023-02-07T05:46:55.520Z,-5.86
2023-02-07T05:47:55.508Z,-5.92
2023-02-07T05:48:55.501Z,-5.90
2023-02-07T05:49:55.481Z,-5.96
2023-02-07T05:50:55.541Z,-5.96
2023-02-07T05:51:55.464Z,-6.04
2023-02-07T05:52:55.466Z,-5.99
2023-02-07T05:53:55.463Z,-5.95
2023-02-07T05:54:55.441Z,-5.95
2023-02-07T05:55:55.434Z,-5.95
2023-02-07T05:56:55.418Z,-5.90
2023-02-07T05:57:55.409Z,-5.98
2023-02-07T05:58:55.400Z,-5.90
2023-02-07T05:59:55.385Z,-5.93
2023-02-07T06:00:55.375Z,-5.92
2023-02-07T06:01:55.372Z,-5.90
2023-02-07T06:02:55.368Z,-5.95
2023-02-07T06:03:55.346Z,-5.95
2023-02-07T06:04:55.335Z,-5.90
2023-02-07T06:05:55.322Z,-5.88
2023-02-07T06:06:55.355Z,-5.95
2023-02-07T06:07:55.313Z,-5.88
2023-02-07T06:08:55.292Z,-5.96
2023-02-07T06:09:55.281Z,-5.89
2023-02-07T06:10:55.336Z,-5.85
2023-02-07T06:11:55.291Z,-5.90
2023-02-07T06:12:55.268Z,-5.81
2023-02-07T06:13:55.274Z,-5.77
2023-02-07T06:14:55.253Z,-5.74
2023-02-07T06:15:55.383Z,-5.78
2023-02-07T06:16:55.219Z,-5.85
2023-02-07T06:17:55.254Z,-5.83
2023-02-07T06:18:55.264Z,-5.83
2023-02-07T06:19:55.189Z,-5.86
2023-02-07T06:20:55.185Z,-5.90
2023-02-07T06:21:55.180Z,-5.79
2023-02-07T06:22:55.191Z,-5.72
2023-02-07T06:23:55.169Z,-5.79
2023-02-07T06:24:55.137Z,-5.79
2023-02-07T06:25:55.128Z,-5.77
2023-02-07T06:26:55.118Z,-5.78
2023-02-07T06:27:55.131Z,-5.88
2023-02-07T06:28:55.099Z,-5.86
2023-02-07T06:29:55.089Z,-5.83
2023-02-07T06:30:55.117Z,-5.81
2023-02-07T06:31:55.063Z,-5.79
2023-02-07T06:32:55.048Z,-5.85
2023-02-07T06:33:55.041Z,-5.81
2023-02-07T06:34:55.046Z,-5.89
2023-02-07T06:35:55.017Z,-5.93
2023-02-07T06:36:55.009Z,-5.99
2023-02-07T06:37:55.306Z,-5.93
2023-02-07T06:38:55.005Z,-5.90
2023-02-07T06:39:54.983Z,-5.96
2023-02-07T06:40:54.970Z,-5.92
2023-02-07T06:41:54.952Z,-5.92
2023-02-07T06:42:54.960Z,-5.98
2023-02-07T06:43:54.940Z,-5.90
2023-02-07T06:44:54.934Z,-5.95
2023-02-07T06:45:54.934Z,-5.96
2023-02-07T06:46:54.910Z,-5.90
2023-02-07T06:47:54.920Z,-5.96
2023-02-07T06:48:54.885Z,-6.04
2023-02-07T06:49:54.893Z,-5.92
2023-02-07T06:50:54.870Z,-6.00
2023-02-07T06:51:54.866Z,-5.95
2023-02-07T06:52:54.851Z,-5.95
2023-02-07T06:53:54.869Z,-5.93
2023-02-07T06:54:54.849Z,-5.78
2023-02-07T06:55:54.818Z,-5.85
2023-02-07T06:56:54.827Z,-5.83
2023-02-07T06:57:54.790Z,-5.85
2023-02-07T06:58:54.811Z,-5.86
2023-02-07T06:59:54.779Z,-5.86
2023-02-07T07:00:54.767Z,-5.85
2023-02-07T07:01:54.814Z,-5.88
2023-02-07T07:02:54.762Z,-5.89
2023-02-07T07:03:54.757Z,-5.90
2023-02-07T07:04:54.733Z,-5.89
2023-02-07T07:05:54.710Z,-5.93
2023-02-07T07:06:54.706Z,-5.89
2023-02-07T07:07:54.716Z,-5.90
2023-02-07T07:08:54.685Z,-5.93
2023-02-07T07:09:54.678Z,-5.92
2023-02-07T07:10:54.688Z,-5.93
2023-02-07T07:11:54.665Z,-5.90
2023-02-07T07:12:54.657Z,-5.93
2023-02-07T07:13:54.640Z,-5.90
2023-02-07T07:14:54.629Z,-5.81
2023-02-07T07:15:54.692Z,-5.79
2023-02-07T07:16:56.743Z,-5.75
2023-02-07T07:18:02.131Z,-5.72
2023-02-07T07:18:54.579Z,-5.78
2023-02-07T07:19:54.578Z,-5.83
2023-02-07T07:20:54.587Z,-5.71
2023-02-07T07:21:54.568Z,-5.59
2023-02-07T07:22:54.541Z,-5.59
2023-02-07T07:23:54.562Z,-5.70
2023-02-07T07:24:54.531Z,-5.57
2023-02-07T07:25:54.512Z,-5.60
2023-02-07T07:26:54.540Z,-5.57
2023-02-07T07:27:54.538Z,-5.51
2023-02-07T07:28:54.490Z,-5.47
2023-02-07T07:29:54.492Z,-5.51
2023-02-07T07:30:54.503Z,-5.46
2023-02-07T07:31:54.504Z,-5.39
2023-02-07T07:32:54.560Z,-5.41
2023-02-07T07:33:54.438Z,-5.29
2023-02-07T07:34:54.427Z,-5.29
2023-02-07T07:35:54.410Z,-5.21
2023-02-07T07:36:54.418Z,-5.25
2023-02-07T07:37:54.404Z,-5.14
2023-02-07T07:38:54.384Z,-5.14
2023-02-07T07:39:54.381Z,-5.20
2023-02-07T07:40:54.371Z,-5.13
2023-02-07T07:41:54.347Z,-5.05
2023-02-07T07:42:54.356Z,-5.11
2023-02-07T07:43:54.335Z,-4.95
2023-02-07T07:44:54.325Z,-5.03
2023-02-07T07:45:54.319Z,-4.99
2023-02-07T07:46:54.371Z,-4.92
2023-02-07T07:47:54.316Z,-4.85
2023-02-07T07:48:54.276Z,-4.87
2023-02-07T07:49:54.264Z,-4.91
2023-02-07T07:50:54.264Z,-4.82
2023-02-07T07:51:54.258Z,-4.81
2023-02-07T07:52:54.249Z,-4.84
2023-02-07T07:53:54.254Z,-4.82
2023-02-07T07:54:54.232Z,-4.77
2023-02-07T07:55:54.213Z,-4.70
2023-02-07T07:56:54.199Z,-4.77
2023-02-07T07:57:54.204Z,-4.67
2023-02-07T07:58:54.199Z,-4.59
2023-02-07T07:59:54.199Z,-4.56
2023-02-07T08:00:54.200Z,-4.45
2023-02-07T08:01:54.156Z,-4.42
2023-02-07T08:02:54.144Z,-4.42
2023-02-07T08:03:54.156Z,-4.42
2023-02-07T08:04:54.123Z,-4.30
2023-02-07T08:05:54.117Z,-4.27
2023-02-07T08:06:54.108Z,-4.25
2023-02-07T08:07:54.084Z,-4.24
2023-02-07T08:08:54.082Z,-4.17
2023-02-07T08:09:54.081Z,-4.07
2023-02-07T08:10:54.061Z,-4.03
2023-02-07T08:11:54.055Z,-3.92
2023-02-07T08:12:54.034Z,-3.89
2023-02-07T08:13:54.030Z,-3.88
2023-02-07T08:14:54.025Z,-3.87
2023-02-07T08:15:54.071Z,-3.87
2023-02-07T08:16:54.001Z,-3.87
2023-02-07T08:17:53.977Z,-3.78
2023-02-07T08:18:53.968Z,-3.78
2023-02-07T08:19:53.962Z,-3.72
2023-02-07T08:20:53.959Z,-3.74
2023-02-07T08:21:53.941Z,-3.62
2023-02-07T08:22:53.949Z,-3.65
2023-02-07T08:23:53.917Z,-3.60
2023-02-07T08:24:53.906Z,-3.57
2023-02-07T08:25:53.895Z,-3.51
2023-02-07T08:26:53.897Z,-3.51
2023-02-07T08:27:53.993Z,-3.49
2023-02-07T08:28:53.877Z,-3.41
2023-02-07T08:29:53.870Z,-3.36
2023-02-07T08:30:53.930Z,-3.44
2023-02-07T08:31:53.890Z,-3.38
2023-02-07T08:32:53.833Z,-3.38
2023-02-07T08:33:53.814Z,-3.38
2023-02-07T08:34:53.809Z,-3.29
2023-02-07T08:35:53.805Z,-3.24
2023-02-07T08:36:53.849Z,-3.20
2023-02-07T08:37:53.798Z,-3.23
2023-02-07T08:38:53.775Z,-3.13
2023-02-07T08:39:53.784Z,-3.09
2023-02-07T08:40:53.763Z,-3.03
2023-02-07T08:41:53.745Z,-3.03
2023-02-07T08:42:53.725Z,-2.92
2023-02-07T08:43:53.727Z,-2.98
2023-02-07T08:44:53.720Z,-2.92
2023-02-07T08:45:53.791Z,-2.95
2023-02-07T08:46:53.713Z,-2.92
2023-02-07T08:47:53.688Z,-2.85
2023-02-07T08:48:53.708Z,-2.84
2023-02-07T08:49:53.671Z,-2.74
2023-02-07T08:50:53.667Z,-2.73
2023-02-07T08:51:53.657Z,-2.70
2023-02-07T08:52:53.622Z,-2.66
2023-02-07T08:53:53.640Z,-2.66
2023-02-07T08:54:53.623Z,-2.55
2023-02-07T08:55:53.593Z,-2.61
2023-02-07T08:56:53.595Z,-2.56
2023-02-07T08:57:53.594Z,-2.45
2023-02-07T08:58:53.580Z,-2.45
2023-02-07T08:59:53.562Z,-2.37
2023-02-07T09:00:53.615Z,-2.30
2023-02-07T09:01:53.661Z,-2.29
2023-02-07T09:02:53.559Z,-2.29
2023-02-07T09:03:53.539Z,-2.24
2023-02-07T09:04:53.514Z,-2.18
2023-02-07T09:05:53.503Z,-2.15
2023-02-07T09:06:53.511Z,-2.15
2023-02-07T09:07:53.480Z,-2.24
2023-02-07T09:08:53.486Z,-2.06
2023-02-07T09:09:53.462Z,-2.09
2023-02-07T09:10:53.489Z,-2.03
2023-02-07T09:11:53.441Z,-2.11
2023-02-07T09:12:53.443Z,-2.11
2023-02-07T09:13:53.435Z,-1.98
2023-02-07T09:14:53.415Z,-1.90
2023-02-07T09:15:53.395Z,-1.76
2023-02-07T09:16:53.406Z,-1.78
2023-02-07T09:17:53.371Z,-1.80
2023-02-07T09:18:53.382Z,-1.73
2023-02-07T09:19:53.362Z,-1.72
2023-02-07T09:20:53.347Z,-1.75
2023-02-07T09:21:53.345Z,-1.57
2023-02-07T09:22:53.330Z,-1.58
2023-02-07T09:23:53.318Z,-1.61
2023-02-07T09:24:53.300Z,-1.59
2023-02-07T09:25:53.289Z,-1.55
2023-02-07T09:26:53.285Z,-1.46
2023-02-07T09:27:53.322Z,-1.43
2023-02-07T09:28:53.277Z,-1.40
2023-02-07T09:29:53.253Z,-1.37
2023-02-07T09:30:53.830Z,-1.43
2023-02-07T09:31:53.416Z,-1.39
2023-02-07T09:32:53.287Z,-1.23
2023-02-07T09:33:53.211Z,-1.15
2023-02-07T09:34:53.218Z,-1.15
2023-02-07T09:35:53.196Z,-1.13
2023-02-07T09:36:53.184Z,-1.13
2023-02-07T09:37:53.206Z,-1.18
2023-02-07T09:39:00.690Z,-0.98
2023-02-07T09:40:00.688Z,-0.95
2023-02-07T09:41:00.672Z,-0.86
2023-02-07T09:41:53.121Z,-0.86
2023-02-07T09:42:53.185Z,-0.81
2023-02-07T09:43:53.282Z,-0.86
2023-02-07T09:44:53.384Z,-0.70
2023-02-07T09:45:53.121Z,-0.78
2023-02-07T09:46:53.079Z,-0.81
2023-02-07T09:47:53.076Z,-0.71
2023-02-07T09:48:53.071Z,-0.70
2023-02-07T09:49:53.069Z,-0.71
2023-02-07T09:50:53.068Z,-0.73
2023-02-07T09:51:53.031Z,-0.73
2023-02-07T09:52:53.020Z,-0.67
2023-02-07T09:53:53.019Z,-0.68
2023-02-07T09:54:53.015Z,-0.60
2023-02-07T09:55:53.029Z,-0.60
2023-02-07T09:56:52.986Z,-0.58
2023-02-07T09:57:52.964Z,-0.47
2023-02-07T09:58:52.950Z,-0.47
2023-02-07T09:59:52.981Z,-0.39
2023-02-07T10:00:52.944Z,-0.43
2023-02-07T10:01:52.935Z,-0.31
2023-02-07T10:02:52.902Z,-0.28
2023-02-07T10:03:52.906Z,-0.28
2023-02-07T10:04:52.888Z,-0.31
2023-02-07T10:05:52.895Z,-0.16
2023-02-07T10:06:52.894Z,-0.17
2023-02-07T10:07:52.862Z,-0.13
2023-02-07T10:08:52.856Z,-0.10
2023-02-07T10:09:52.845Z,-0.14
2023-02-07T10:10:52.861Z,-0.11
2023-02-07T10:11:52.856Z,-0.04
2023-02-07T10:12:52.805Z,0.04
2023-02-07T10:13:52.819Z,0.07
2023-02-07T10:14:52.779Z,0.11
2023-02-07T10:15:52.821Z,-0.03
2023-02-07T10:16:52.767Z,0.00
2023-02-07T10:17:52.749Z,0.12
2023-02-07T10:18:52.740Z,0.07
2023-02-07T10:19:52.736Z,0.14
2023-02-07T10:20:52.728Z,0.14
2023-02-07T10:21:52.752Z,0.12
2023-02-07T10:22:52.774Z,0.18
2023-02-07T10:23:52.678Z,0.30
2023-02-07T10:24:52.682Z,0.25
2023-02-07T10:25:52.705Z,0.36
2023-02-07T10:26:52.724Z,0.32
2023-02-07T10:27:52.745Z,0.44
2023-02-07T10:28:52.676Z,0.30
2023-02-07T10:29:52.632Z,0.41
2023-02-07T10:30:52.771Z,0.36
2023-02-07T10:31:52.644Z,0.43
2023-02-07T10:32:52.604Z,0.51
2023-02-07T10:33:52.591Z,0.47
2023-02-07T10:35:00.140Z,0.50
2023-02-07T10:35:52.575Z,0.51
2023-02-07T10:36:52.553Z,0.55
2023-02-07T10:37:52.555Z,0.51
2023-02-07T10:39:03.337Z,0.53
2023-02-07T10:39:53.537Z,0.53
2023-02-07T10:40:52.520Z,0.59
2023-02-07T10:41:52.512Z,0.64
2023-02-07T10:42:52.548Z,0.69
2023-02-07T10:43:52.497Z,0.70
2023-02-07T10:44:52.473Z,0.70
2023-02-07T10:46:00.371Z,0.78
2023-02-07T10:46:53.465Z,0.67
2023-02-07T10:47:52.449Z,0.73
2023-02-07T10:48:52.431Z,0.69
2023-02-07T10:49:52.425Z,0.67
2023-02-07T10:50:52.425Z,0.73
2023-02-07T10:51:52.390Z,0.80
2023-02-07T10:52:52.397Z,0.90
2023-02-07T10:53:55.343Z,0.87
2023-02-07T10:54:52.385Z,0.91
2023-02-07T10:55:52.356Z,0.92
2023-02-07T10:56:52.859Z,0.94
2023-02-07T10:57:59.044Z,0.94
2023-02-07T10:58:53.332Z,0.91
2023-02-07T10:59:52.311Z,0.92
2023-02-07T11:00:52.309Z,0.85
2023-02-07T11:01:52.328Z,0.94
2023-02-07T11:02:52.452Z,0.91
2023-02-07T11:03:52.283Z,1.02
2023-02-07T11:04:52.264Z,1.10
2023-02-07T11:05:52.269Z,1.09
2023-02-07T11:06:52.262Z,1.12
2023-02-07T11:07:52.245Z,1.13
2023-02-07T11:08:52.229Z,1.08
2023-02-07T11:09:52.229Z,0.94
2023-02-07T11:10:52.220Z,1.08
2023-02-07T11:11:52.182Z,1.08
2023-02-07T11:12:52.172Z,1.03
2023-02-07T11:13:52.164Z,1.03
2023-02-07T11:14:53.229Z,1.23
2023-02-07T11:15:52.199Z,1.24
2023-02-07T11:16:52.139Z,1.23
2023-02-07T11:17:52.166Z,1.16
2023-02-07T11:18:53.948Z,1.26
2023-02-07T11:19:52.106Z,1.24
2023-02-07T11:20:52.097Z,1.38
2023-02-07T11:21:52.097Z,1.36
2023-02-07T11:22:52.077Z,1.39
2023-02-07T11:23:52.062Z,1.41
2023-02-07T11:24:52.089Z,1.38
2023-02-07T11:25:52.044Z,1.52
2023-02-07T11:26:52.057Z,1.38
2023-02-07T11:27:52.042Z,1.34
2023-02-07T11:28:52.014Z,1.39
2023-02-07T11:29:52.001Z,1.60
2023-02-07T11:30:52.074Z,1.62
2023-02-07T11:31:52.027Z,1.66
2023-02-07T11:32:51.976Z,1.66
2023-02-07T11:33:51.959Z,1.59
2023-02-07T11:34:51.973Z,1.59
2023-02-07T11:35:51.945Z,1.73
2023-02-07T11:36:51.985Z,1.64
2023-02-07T11:37:51.907Z,1.59
2023-02-07T11:38:51.925Z,1.53
2023-02-07T11:39:51.987Z,1.46
2023-02-07T11:40:51.886Z,1.53
2023-02-07T11:41:51.875Z,1.48
2023-02-07T11:42:51.892Z,1.57
2023-02-07T11:43:51.861Z,1.60
2023-02-07T11:44:51.850Z,1.67
2023-02-07T11:45:51.851Z,1.64
2023-02-07T11:46:51.873Z,1.71
2023-02-07T11:47:51.836Z,1.71
2023-02-07T11:48:51.802Z,1.66
2023-02-07T11:49:51.783Z,1.60
2023-02-07T11:50:51.815Z,1.60
2023-02-07T11:51:51.795Z,1.53
2023-02-07T11:52:51.763Z,1.62
2023-02-07T11:53:51.749Z,1.77
2023-02-07T11:54:51.735Z,1.71
2023-02-07T11:55:52.145Z,1.74
2023-02-07T11:56:51.727Z,1.73
2023-02-07T11:57:51.711Z,1.73
2023-02-07T11:58:51.709Z,1.81
2023-02-07T11:59:51.688Z,1.81
2023-02-07T12:00:51.696Z,1.84
2023-02-07T12:01:52.304Z,1.92
2023-02-07T12:02:51.687Z,2.01
2023-02-07T12:03:51.663Z,1.95
2023-02-07T12:04:51.674Z,1.84
2023-02-07T12:05:51.623Z,1.92
2023-02-07T12:06:51.616Z,1.84
2023-02-07T12:07:51.610Z,1.82
2023-02-07T12:08:51.604Z,1.82
2023-02-07T12:09:51.595Z,1.84
2023-02-07T12:10:51.583Z,1.75
2023-02-07T12:11:51.558Z,1.84
2023-02-07T12:12:51.574Z,1.99
2023-02-07T12:13:59.865Z,2.01
2023-02-07T12:14:51.541Z,2.06
2023-02-07T12:15:51.562Z,1.97
2023-02-07T12:16:51.507Z,2.01
2023-02-07T12:17:51.515Z,2.04
2023-02-07T12:18:51.523Z,2.03
2023-02-07T12:19:51.472Z,2.06
2023-02-07T12:20:51.479Z,2.06
2023-02-07T12:21:51.490Z,2.06
2023-02-07T12:23:01.079Z,2.17
2023-02-07T12:23:52.446Z,2.11
2023-02-07T12:24:51.462Z,2.17
2023-02-07T12:25:51.427Z,2.21
2023-02-07T12:26:51.438Z,2.19
2023-02-07T12:27:51.419Z,2.30
2023-02-07T12:28:53.286Z,2.19
2023-02-07T12:29:52.430Z,2.24
2023-02-07T12:30:51.409Z,2.21
2023-02-07T12:31:51.500Z,2.14
2023-02-07T12:32:51.414Z,2.15
2023-02-07T12:33:51.359Z,2.06
2023-02-07T12:34:51.363Z,2.06
2023-02-07T12:35:57.614Z,2.15
2023-02-07T12:36:52.315Z,2.17
2023-02-07T12:37:51.296Z,2.25
2023-02-07T12:38:51.283Z,2.28
2023-02-07T12:39:51.280Z,2.39
2023-02-07T12:40:51.283Z,2.45
2023-02-07T12:41:51.277Z,2.47
2023-02-07T12:42:51.245Z,2.43
2023-02-07T12:43:51.248Z,2.43
2023-02-07T12:44:51.223Z,2.24
2023-02-07T12:45:51.305Z,2.18
2023-02-07T12:46:51.206Z,2.17
2023-02-07T12:47:51.191Z,2.28
2023-02-07T12:48:51.187Z,2.19
2023-02-07T12:49:51.176Z,2.25
2023-02-07T12:50:51.166Z,2.25
2023-02-07T12:51:51.165Z,2.25
2023-02-07T12:52:51.146Z,2.30
2023-02-07T12:53:51.139Z,2.37
2023-02-07T12:54:51.113Z,2.39
2023-02-07T12:55:51.113Z,2.42
2023-02-07T12:56:51.098Z,2.54
2023-02-07T12:57:51.109Z,2.54
2023-02-07T12:58:51.099Z,2.58